sensor_id;sensor_type;location;lat;lon;timestamp;pressure;altitude;pressure_sealevel;temperature;humidity
74103;BME280;62853;46.166;3.640;2023-05-09T00:02:03;101629.03;;;15.34;100.00
74103;BME280;62853;46.166;3.640;2023-05-09T00:04:29;101640.22;;;15.39;100.00
74103;BME280;62853;46.166;3.640;2023-05-09T00:06:54;101646.19;;;15.43;100.00
74103;BME280;62853;46.166;3.640;2023-05-09T00:09:20;101626.47;;;15.33;100.00
74103;BME280;62853;46.166;3.640;2023-05-09T00:11:45;101635.22;;;15.35;100.00
74103;BME280;62853;46.166;3.640;2023-05-09T00:14:11;101632.56;;;15.35;100.00
74103;BME280;62853;46.166;3.640;2023-05-09T00:16:38;101623.06;;;15.31;100.00
74103;BME280;62853;46.166;3.640;2023-05-09T00:19:03;101609.31;;;15.24;100.00
74103;BME280;62853;46.166;3.640;2023-05-09T00:21:29;101615.09;;;15.31;100.00
74103;BME280;62853;46.166;3.640;2023-05-09T00:23:55;101611.41;;;15.33;100.00
74103;BME280;62853;46.166;3.640;2023-05-09T00:26:23;101616.81;;;15.32;100.00
74103;BME280;62853;46.166;3.640;2023-05-09T00:28:51;101607.63;;;15.23;100.00
74103;BME280;62853;46.166;3.640;2023-05-09T00:31:16;101607.53;;;15.24;100.00
74103;BME280;62853;46.166;3.640;2023-05-09T00:33:44;101606.56;;;15.25;100.00
74103;BME280;62853;46.166;3.640;2023-05-09T00:36:10;101598.97;;;15.19;100.00
74103;BME280;62853;46.166;3.640;2023-05-09T00:38:35;101597.00;;;15.23;100.00
74103;BME280;62853;46.166;3.640;2023-05-09T00:41:01;101594.06;;;15.28;100.00
74103;BME280;62853;46.166;3.640;2023-05-09T00:43:26;101590.28;;;15.17;100.00
74103;BME280;62853;46.166;3.640;2023-05-09T00:45:52;101607.03;;;15.32;100.00
74103;BME280;62853;46.166;3.640;2023-05-09T00:48:17;101597.94;;;15.22;100.00
74103;BME280;62853;46.166;3.640;2023-05-09T00:50:43;101587.91;;;15.27;100.00
74103;BME280;62853;46.166;3.640;2023-05-09T00:53:11;101586.97;;;15.28;100.00
74103;BME280;62853;46.166;3.640;2023-05-09T00:55:37;101586.97;;;15.28;100.00
74103;BME280;62853;46.166;3.640;2023-05-09T00:58:03;101585.72;;;15.34;100.00
74103;BME280;62853;46.166;3.640;2023-05-09T01:00:28;101564.00;;;15.27;100.00
74103;BME280;62853;46.166;3.640;2023-05-09T01:02:54;101570.63;;;15.34;100.00
74103;BME280;62853;46.166;3.640;2023-05-09T01:08:36;101566.38;;;15.32;100.00
74103;BME280;62853;46.166;3.640;2023-05-09T01:11:35;101557.56;;;15.31;100.00
74103;BME280;62853;46.166;3.640;2023-05-09T01:14:23;101561.81;;;15.19;100.00
74103;BME280;62853;46.166;3.640;2023-05-09T01:17:15;101570.56;;;15.21;100.00
74103;BME280;62853;46.166;3.640;2023-05-09T01:22:34;101553.78;;;15.21;100.00
74103;BME280;62853;46.166;3.640;2023-05-09T01:27:44;101531.06;;;15.17;100.00
74103;BME280;62853;46.166;3.640;2023-05-09T01:30:13;101527.75;;;15.13;100.00
74103;BME280;62853;46.166;3.640;2023-05-09T01:32:42;101535.69;;;15.13;100.00
74103;BME280;62853;46.166;3.640;2023-05-09T01:35:10;101526.69;;;15.16;100.00
74103;BME280;62853;46.166;3.640;2023-05-09T01:37:42;101529.25;;;15.17;100.00
74103;BME280;62853;46.166;3.640;2023-05-09T01:40:15;101523.19;;;15.15;100.00
74103;BME280;62853;46.166;3.640;2023-05-09T01:42:46;101518.06;;;15.12;100.00
74103;BME280;62853;46.166;3.640;2023-05-09T01:45:12;101519.97;;;15.10;100.00
74103;BME280;62853;46.166;3.640;2023-05-09T01:47:39;101509.63;;;15.05;100.00
74103;BME280;62853;46.166;3.640;2023-05-09T01:50:06;101509.72;;;15.04;100.00
74103;BME280;62853;46.166;3.640;2023-05-09T01:52:33;101511.34;;;15.06;100.00
74103;BME280;62853;46.166;3.640;2023-05-09T01:55:01;101504.25;;;15.07;100.00
74103;BME280;62853;46.166;3.640;2023-05-09T01:57:31;101501.78;;;15.04;100.00
74103;BME280;62853;46.166;3.640;2023-05-09T01:59:57;101496.56;;;15.02;100.00
74103;BME280;62853;46.166;3.640;2023-05-09T02:02:25;101496.97;;;14.96;100.00
74103;BME280;62853;46.166;3.640;2023-05-09T02:04:54;101500.47;;;14.97;100.00
74103;BME280;62853;46.166;3.640;2023-05-09T02:07:22;101501.53;;;14.94;100.00
74103;BME280;62853;46.166;3.640;2023-05-09T02:09:49;101495.25;;;14.95;100.00
74103;BME280;62853;46.166;3.640;2023-05-09T02:12:14;101490.59;;;14.99;100.00
74103;BME280;62853;46.166;3.640;2023-05-09T02:14:42;101494.22;;;14.83;100.00
74103;BME280;62853;46.166;3.640;2023-05-09T02:17:08;101501.06;;;14.87;100.00
74103;BME280;62853;46.166;3.640;2023-05-09T02:19:37;101503.91;;;14.84;100.00
74103;BME280;62853;46.166;3.640;2023-05-09T02:22:02;101505.09;;;14.79;100.00
74103;BME280;62853;46.166;3.640;2023-05-09T02:24:32;101517.72;;;14.75;100.00
74103;BME280;62853;46.166;3.640;2023-05-09T02:27:04;101510.31;;;14.80;100.00
74103;BME280;62853;46.166;3.640;2023-05-09T02:29:40;101502.94;;;14.71;100.00
74103;BME280;62853;46.166;3.640;2023-05-09T02:32:28;101501.03;;;14.73;100.00
74103;BME280;62853;46.166;3.640;2023-05-09T02:34:57;101503.50;;;14.62;100.00
74103;BME280;62853;46.166;3.640;2023-05-09T02:37:25;101507.69;;;14.66;100.00
74103;BME280;62853;46.166;3.640;2023-05-09T02:39:53;101498.41;;;14.59;100.00
74103;BME280;62853;46.166;3.640;2023-05-09T02:42:24;101505.94;;;14.50;100.00
74103;BME280;62853;46.166;3.640;2023-05-09T02:44:53;101509.91;;;14.58;100.00
74103;BME280;62853;46.166;3.640;2023-05-09T02:47:19;101499.06;;;14.62;100.00
74103;BME280;62853;46.166;3.640;2023-05-09T02:49:44;101486.16;;;14.56;100.00
74103;BME280;62853;46.166;3.640;2023-05-09T02:52:10;101481.69;;;14.57;100.00
74103;BME280;62853;46.166;3.640;2023-05-09T02:54:36;101480.94;;;14.40;100.00
74103;BME280;62853;46.166;3.640;2023-05-09T02:57:05;101480.47;;;14.33;100.00
74103;BME280;62853;46.166;3.640;2023-05-09T02:59:31;101475.25;;;14.32;100.00
74103;BME280;62853;46.166;3.640;2023-05-09T03:01:56;101482.22;;;14.33;100.00
74103;BME280;62853;46.166;3.640;2023-05-09T03:04:22;101466.72;;;14.27;100.00
74103;BME280;62853;46.166;3.640;2023-05-09T03:06:47;101463.50;;;14.22;100.00
74103;BME280;62853;46.166;3.640;2023-05-09T03:09:16;101462.84;;;14.32;100.00
74103;BME280;62853;46.166;3.640;2023-05-09T03:11:41;101455.81;;;14.17;100.00
74103;BME280;62853;46.166;3.640;2023-05-09T03:14:07;101459.97;;;14.21;100.00
74103;BME280;62853;46.166;3.640;2023-05-09T03:16:33;101455.25;;;14.26;100.00
74103;BME280;62853;46.166;3.640;2023-05-09T03:18:58;101445.13;;;14.33;100.00
74103;BME280;62853;46.166;3.640;2023-05-09T03:21:26;101453.19;;;14.31;100.00
74103;BME280;62853;46.166;3.640;2023-05-09T03:23:54;101455.19;;;14.42;100.00
74103;BME280;62853;46.166;3.640;2023-05-09T03:26:19;101439.28;;;14.28;100.00
74103;BME280;62853;46.166;3.640;2023-05-09T03:28:45;101452.34;;;14.31;100.00
74103;BME280;62853;46.166;3.640;2023-05-09T03:31:11;101454.22;;;14.29;100.00
74103;BME280;62853;46.166;3.640;2023-05-09T03:33:39;101447.59;;;14.22;100.00
74103;BME280;62853;46.166;3.640;2023-05-09T03:36:05;101444.56;;;14.28;100.00
74103;BME280;62853;46.166;3.640;2023-05-09T03:38:30;101439.66;;;14.36;100.00
74103;BME280;62853;46.166;3.640;2023-05-09T03:40:56;101441.81;;;14.29;100.00
74103;BME280;62853;46.166;3.640;2023-05-09T03:43:21;101437.19;;;14.33;100.00
74103;BME280;62853;46.166;3.640;2023-05-09T03:45:47;101435.78;;;14.27;100.00
74103;BME280;62853;46.166;3.640;2023-05-09T03:48:12;101435.13;;;14.24;100.00
74103;BME280;62853;46.166;3.640;2023-05-09T03:50:40;101436.34;;;14.32;100.00
74103;BME280;62853;46.166;3.640;2023-05-09T03:53:05;101435.03;;;14.25;100.00
74103;BME280;62853;46.166;3.640;2023-05-09T03:55:31;101430.47;;;14.27;100.00
74103;BME280;62853;46.166;3.640;2023-05-09T03:57:56;101433.03;;;14.29;100.00
74103;BME280;62853;46.166;3.640;2023-05-09T04:00:22;101433.22;;;14.26;100.00
74103;BME280;62853;46.166;3.640;2023-05-09T04:02:48;101424.34;;;14.27;100.00
74103;BME280;62853;46.166;3.640;2023-05-09T04:05:16;101420.81;;;14.26;100.00
74103;BME280;62853;46.166;3.640;2023-05-09T04:07:41;101423.56;;;14.25;100.00
74103;BME280;62853;46.166;3.640;2023-05-09T04:10:07;101410.88;;;14.16;100.00
74103;BME280;62853;46.166;3.640;2023-05-09T04:12:35;101401.78;;;14.20;100.00
74103;BME280;62853;46.166;3.640;2023-05-09T04:15:01;101420.41;;;14.18;100.00
74103;BME280;62853;46.166;3.640;2023-05-09T04:17:26;101405.97;;;14.24;100.00
74103;BME280;62853;46.166;3.640;2023-05-09T04:19:52;101402.56;;;14.22;100.00
74103;BME280;62853;46.166;3.640;2023-05-09T04:22:17;101402.34;;;14.25;100.00
74103;BME280;62853;46.166;3.640;2023-05-09T04:24:43;101410.13;;;14.28;100.00
74103;BME280;62853;46.166;3.640;2023-05-09T04:27:08;101409.56;;;14.37;100.00
74103;BME280;62853;46.166;3.640;2023-05-09T04:29:34;101403.78;;;14.30;100.00
74103;BME280;62853;46.166;3.640;2023-05-09T04:32:02;101399.78;;;14.23;100.00
74103;BME280;62853;46.166;3.640;2023-05-09T04:34:29;101397.84;;;14.27;100.00
74103;BME280;62853;46.166;3.640;2023-05-09T04:36:54;101397.75;;;14.28;100.00
74103;BME280;62853;46.166;3.640;2023-05-09T04:39:22;101399.63;;;14.41;100.00
74103;BME280;62853;46.166;3.640;2023-05-09T04:41:47;101398.66;;;14.42;100.00
74103;BME280;62853;46.166;3.640;2023-05-09T04:44:14;101384.56;;;14.41;100.00
74103;BME280;62853;46.166;3.640;2023-05-09T04:46:40;101389.03;;;14.41;100.00
74103;BME280;62853;46.166;3.640;2023-05-09T04:49:05;101384.75;;;14.52;100.00
74103;BME280;62853;46.166;3.640;2023-05-09T04:51:31;101382.59;;;14.59;100.00
74103;BME280;62853;46.166;3.640;2023-05-09T04:53:56;101375.03;;;14.67;100.00
74103;BME280;62853;46.166;3.640;2023-05-09T04:56:22;101366.97;;;14.69;100.00
74103;BME280;62853;46.166;3.640;2023-05-09T04:58:49;101373.19;;;14.82;100.00
74103;BME280;62853;46.166;3.640;2023-05-09T05:01:15;101359.63;;;14.87;100.00
74103;BME280;62853;46.166;3.640;2023-05-09T05:03:41;101361.25;;;14.90;100.00
74103;BME280;62853;46.166;3.640;2023-05-09T05:06:14;101354.78;;;14.94;100.00
74103;BME280;62853;46.166;3.640;2023-05-09T05:08:39;101350.63;;;14.90;100.00
74103;BME280;62853;46.166;3.640;2023-05-09T05:11:07;101344.34;;;14.91;100.00
74103;BME280;62853;46.166;3.640;2023-05-09T05:13:33;101342.56;;;14.91;100.00
74103;BME280;62853;46.166;3.640;2023-05-09T05:15:58;101338.00;;;14.93;100.00
74103;BME280;62853;46.166;3.640;2023-05-09T05:18:24;101336.19;;;14.94;100.00
74103;BME280;62853;46.166;3.640;2023-05-09T05:20:49;101335.81;;;15.00;100.00
74103;BME280;62853;46.166;3.640;2023-05-09T05:23:15;101336.75;;;14.99;100.00
74103;BME280;62853;46.166;3.640;2023-05-09T05:25:42;101336.91;;;15.10;100.00
74103;BME280;62853;46.166;3.640;2023-05-09T05:28:08;101327.13;;;15.11;100.00
74103;BME280;62853;46.166;3.640;2023-05-09T05:30:33;101326.84;;;15.15;100.00
74103;BME280;62853;46.166;3.640;2023-05-09T05:33:01;101318.28;;;15.24;100.00
74103;BME280;62853;46.166;3.640;2023-05-09T05:35:27;101312.53;;;15.31;100.00
74103;BME280;62853;46.166;3.640;2023-05-09T05:37:53;101317.00;;;15.43;100.00
74103;BME280;62853;46.166;3.640;2023-05-09T05:40:19;101317.13;;;15.54;100.00
74103;BME280;62853;46.166;3.640;2023-05-09T05:42:45;101320.66;;;15.68;100.00
74103;BME280;62853;46.166;3.640;2023-05-09T05:45:10;101305.34;;;15.71;100.00
74103;BME280;62853;46.166;3.640;2023-05-09T05:47:36;101311.75;;;15.81;100.00
74103;BME280;62853;46.166;3.640;2023-05-09T05:50:03;101305.41;;;15.84;100.00
74103;BME280;62853;46.166;3.640;2023-05-09T05:52:31;101306.47;;;15.94;100.00
74103;BME280;62853;46.166;3.640;2023-05-09T05:54:56;101302.84;;;15.95;100.00
74103;BME280;62853;46.166;3.640;2023-05-09T05:57:21;101293.59;;;16.01;100.00
74103;BME280;62853;46.166;3.640;2023-05-09T05:59:48;101301.66;;;16.12;100.00
74103;BME280;62853;46.166;3.640;2023-05-09T06:02:15;101290.16;;;16.12;100.00
74103;BME280;62853;46.166;3.640;2023-05-09T06:04:41;101287.59;;;16.23;100.00
74103;BME280;62853;46.166;3.640;2023-05-09T06:07:07;101281.38;;;16.35;100.00
74103;BME280;62853;46.166;3.640;2023-05-09T06:09:32;101283.91;;;16.50;100.00
74103;BME280;62853;46.166;3.640;2023-05-09T06:11:57;101282.59;;;16.55;100.00
74103;BME280;62853;46.166;3.640;2023-05-09T06:14:23;101272.69;;;16.58;100.00
74103;BME280;62853;46.166;3.640;2023-05-09T06:16:48;101267.53;;;16.56;100.00
74103;BME280;62853;46.166;3.640;2023-05-09T06:19:14;101271.75;;;16.59;100.00
74103;BME280;62853;46.166;3.640;2023-05-09T06:21:39;101268.25;;;16.58;100.00
74103;BME280;62853;46.166;3.640;2023-05-09T06:24:07;101270.19;;;16.56;100.00
74103;BME280;62853;46.166;3.640;2023-05-09T06:26:33;101273.22;;;16.63;100.00
74103;BME280;62853;46.166;3.640;2023-05-09T06:28:58;101258.34;;;16.60;100.00
74103;BME280;62853;46.166;3.640;2023-05-09T06:31:26;101266.44;;;16.59;100.00
74103;BME280;62853;46.166;3.640;2023-05-09T06:33:54;101262.94;;;16.58;100.00
74103;BME280;62853;46.166;3.640;2023-05-09T06:36:19;101263.88;;;16.57;100.00
74103;BME280;62853;46.166;3.640;2023-05-09T06:38:45;101256.00;;;16.55;100.00
74103;BME280;62853;46.166;3.640;2023-05-09T06:41:13;101253.69;;;16.51;100.00
74103;BME280;62853;46.166;3.640;2023-05-09T06:43:38;101251.91;;;16.51;100.00
74103;BME280;62853;46.166;3.640;2023-05-09T06:46:17;101255.06;;;16.57;100.00
74103;BME280;62853;46.166;3.640;2023-05-09T06:48:46;101254.97;;;16.58;100.00
74103;BME280;62853;46.166;3.640;2023-05-09T06:51:11;101232.69;;;16.59;100.00
74103;BME280;62853;46.166;3.640;2023-05-09T06:53:37;101242.28;;;16.62;100.00
74103;BME280;62853;46.166;3.640;2023-05-09T06:56:06;101236.75;;;16.65;100.00
74103;BME280;62853;46.166;3.640;2023-05-09T06:58:31;101237.47;;;16.67;100.00
74103;BME280;62853;46.166;3.640;2023-05-09T07:00:57;101231.53;;;16.63;100.00
74103;BME280;62853;46.166;3.640;2023-05-09T07:03:30;101235.47;;;16.58;100.00
74103;BME280;62853;46.166;3.640;2023-05-09T07:05:55;101234.53;;;16.59;100.00
74103;BME280;62853;46.166;3.640;2023-05-09T07:08:23;101235.63;;;16.56;100.00
74103;BME280;62853;46.166;3.640;2023-05-09T07:10:49;101231.97;;;16.57;100.00
74103;BME280;62853;46.166;3.640;2023-05-09T07:13:17;101236.34;;;16.58;100.00
74103;BME280;62853;46.166;3.640;2023-05-09T07:15:42;101228.81;;;16.52;100.00
74103;BME280;62853;46.166;3.640;2023-05-09T07:18:08;101223.38;;;16.53;100.00
74103;BME280;62853;46.166;3.640;2023-05-09T07:20:33;101228.59;;;16.55;100.00
74103;BME280;62853;46.166;3.640;2023-05-09T07:22:58;101223.72;;;16.49;100.00
74103;BME280;62853;46.166;3.640;2023-05-09T07:25:26;101218.34;;;16.38;100.00
74103;BME280;62853;46.166;3.640;2023-05-09T07:27:55;101225.06;;;16.30;100.00
74103;BME280;62853;46.166;3.640;2023-05-09T07:30:20;101222.97;;;16.23;100.00
74103;BME280;62853;46.166;3.640;2023-05-09T07:32:46;101221.47;;;16.18;100.00
74103;BME280;62853;46.166;3.640;2023-05-09T07:35:11;101221.38;;;16.20;100.00
74103;BME280;62853;46.166;3.640;2023-05-09T07:37:37;101226.16;;;16.15;100.00
74103;BME280;62853;46.166;3.640;2023-05-09T07:40:05;101230.44;;;16.05;100.00
74103;BME280;62853;46.166;3.640;2023-05-09T07:42:33;101232.19;;;15.93;100.00
74103;BME280;62853;46.166;3.640;2023-05-09T07:44:58;101224.44;;;15.90;100.00
74103;BME280;62853;46.166;3.640;2023-05-09T07:47:24;101225.72;;;15.84;100.00
74103;BME280;62853;46.166;3.640;2023-05-09T07:49:50;101227.94;;;15.90;100.00
74103;BME280;62853;46.166;3.640;2023-05-09T07:52:16;101224.31;;;15.91;100.00
74103;BME280;62853;46.166;3.640;2023-05-09T07:54:44;101215.19;;;15.95;100.00
74103;BME280;62853;46.166;3.640;2023-05-09T07:57:10;101222.91;;;15.98;100.00
74103;BME280;62853;46.166;3.640;2023-05-09T07:59:35;101209.72;;;16.10;100.00
74103;BME280;62853;46.166;3.640;2023-05-09T08:02:01;101186.81;;;16.20;100.00
74103;BME280;62853;46.166;3.640;2023-05-09T08:04:26;101189.25;;;16.47;100.00
74103;BME280;62853;46.166;3.640;2023-05-09T08:06:52;101189.97;;;16.73;100.00
74103;BME280;62853;46.166;3.640;2023-05-09T08:09:18;101181.34;;;16.94;100.00
74103;BME280;62853;46.166;3.640;2023-05-09T08:11:43;101178.25;;;17.00;100.00
74103;BME280;62853;46.166;3.640;2023-05-09T08:14:09;101173.53;;;17.04;100.00
74103;BME280;62853;46.166;3.640;2023-05-09T08:16:35;101174.38;;;17.04;100.00
74103;BME280;62853;46.166;3.640;2023-05-09T08:19:03;101173.66;;;17.02;100.00
74103;BME280;62853;46.166;3.640;2023-05-09T08:21:28;101161.66;;;16.97;100.00
74103;BME280;62853;46.166;3.640;2023-05-09T08:23:53;101162.25;;;16.89;100.00
74103;BME280;62853;46.166;3.640;2023-05-09T08:26:19;101156.72;;;16.79;100.00
74103;BME280;62853;46.166;3.640;2023-05-09T08:28:46;101161.81;;;16.82;100.00
74103;BME280;62853;46.166;3.640;2023-05-09T08:31:14;101153.19;;;16.91;100.00
74103;BME280;62853;46.166;3.640;2023-05-09T08:33:40;101161.91;;;16.94;100.00
74103;BME280;62853;46.166;3.640;2023-05-09T08:36:05;101145.94;;;16.69;100.00
74103;BME280;62853;46.166;3.640;2023-05-09T08:38:31;101143.66;;;16.65;100.00
74103;BME280;62853;46.166;3.640;2023-05-09T08:41:00;101159.00;;;16.61;100.00
74103;BME280;62853;46.166;3.640;2023-05-09T08:43:27;101152.47;;;16.65;100.00
74103;BME280;62853;46.166;3.640;2023-05-09T08:46:03;101153.56;;;16.74;100.00
74103;BME280;62853;46.166;3.640;2023-05-09T08:48:34;101151.75;;;16.74;100.00
74103;BME280;62853;46.166;3.640;2023-05-09T08:51:05;101154.56;;;16.73;100.00
74103;BME280;62853;46.166;3.640;2023-05-09T08:53:31;101142.72;;;16.77;100.00
74103;BME280;62853;46.166;3.640;2023-05-09T08:56:00;101132.53;;;16.71;100.00
74103;BME280;62853;46.166;3.640;2023-05-09T08:58:27;101140.22;;;16.63;100.00
74103;BME280;62853;46.166;3.640;2023-05-09T09:00:55;101139.94;;;16.43;100.00
74103;BME280;62853;46.166;3.640;2023-05-09T09:03:22;101144.38;;;16.31;100.00
74103;BME280;62853;46.166;3.640;2023-05-09T09:05:52;101131.75;;;16.22;100.00
74103;BME280;62853;46.166;3.640;2023-05-09T09:08:19;101143.25;;;16.23;100.00
74103;BME280;62853;46.166;3.640;2023-05-09T09:10:48;101140.06;;;16.17;100.00
74103;BME280;62853;46.166;3.640;2023-05-09T09:13:14;101137.53;;;16.16;100.00
74103;BME280;62853;46.166;3.640;2023-05-09T09:15:45;101128.88;;;16.01;100.00
74103;BME280;62853;46.166;3.640;2023-05-09T09:18:15;101132.19;;;15.92;100.00
74103;BME280;62853;46.166;3.640;2023-05-09T09:20:50;101135.72;;;15.92;100.00
74103;BME280;62853;46.166;3.640;2023-05-09T09:23:19;101137.78;;;16.00;100.00
74103;BME280;62853;46.166;3.640;2023-05-09T09:25:48;101126.94;;;16.03;100.00
74103;BME280;62853;46.166;3.640;2023-05-09T09:28:14;101123.75;;;16.11;100.00
74103;BME280;62853;46.166;3.640;2023-05-09T09:30:44;101112.41;;;15.96;100.00
74103;BME280;62853;46.166;3.640;2023-05-09T09:33:09;101113.75;;;16.02;100.00
74103;BME280;62853;46.166;3.640;2023-05-09T09:35:46;101113.63;;;16.16;100.00
74103;BME280;62853;46.166;3.640;2023-05-09T09:38:12;101115.97;;;16.32;100.00
74103;BME280;62853;46.166;3.640;2023-05-09T09:40:37;101114.09;;;16.45;100.00
74103;BME280;62853;46.166;3.640;2023-05-09T09:43:05;101109.47;;;16.36;100.00
74103;BME280;62853;46.166;3.640;2023-05-09T09:45:31;101111.59;;;16.55;100.00
74103;BME280;62853;46.166;3.640;2023-05-09T09:47:56;101106.59;;;16.50;100.00
74103;BME280;62853;46.166;3.640;2023-05-09T09:50:22;101106.03;;;16.58;100.00
74103;BME280;62853;46.166;3.640;2023-05-09T09:52:53;101111.25;;;16.60;100.00
74103;BME280;62853;46.166;3.640;2023-05-09T09:55:23;101106.25;;;16.55;100.00
74103;BME280;62853;46.166;3.640;2023-05-09T09:57:49;101105.44;;;16.66;100.00
74103;BME280;62853;46.166;3.640;2023-05-09T10:00:17;101096.69;;;16.52;100.00
74103;BME280;62853;46.166;3.640;2023-05-09T10:02:47;101095.63;;;16.55;100.00
74103;BME280;62853;46.166;3.640;2023-05-09T10:05:18;101098.72;;;16.38;100.00
74103;BME280;62853;46.166;3.640;2023-05-09T10:07:44;101092.88;;;16.32;100.00
74103;BME280;62853;46.166;3.640;2023-05-09T10:10:09;101091.09;;;16.33;100.00
74103;BME280;62853;46.166;3.640;2023-05-09T10:12:38;101100.34;;;16.27;100.00
74103;BME280;62853;46.166;3.640;2023-05-09T10:15:08;101092.56;;;16.13;100.00
74103;BME280;62853;46.166;3.640;2023-05-09T10:17:36;101088.28;;;16.23;100.00
74103;BME280;62853;46.166;3.640;2023-05-09T10:20:03;101101.22;;;16.28;100.00
74103;BME280;62853;46.166;3.640;2023-05-09T10:22:31;101097.25;;;16.33;100.00
74103;BME280;62853;46.166;3.640;2023-05-09T10:25:02;101093.97;;;16.30;100.00
74103;BME280;62853;46.166;3.640;2023-05-09T10:27:30;101085.00;;;16.20;100.00
74103;BME280;62853;46.166;3.640;2023-05-09T10:30:06;101086.03;;;16.06;100.00
74103;BME280;62853;46.166;3.640;2023-05-09T10:32:52;101092.06;;;16.08;100.00
74103;BME280;62853;46.166;3.640;2023-05-09T10:35:27;101082.38;;;15.95;100.00
74103;BME280;62853;46.166;3.640;2023-05-09T10:37:56;101078.44;;;15.88;100.00
74103;BME280;62853;46.166;3.640;2023-05-09T10:40:24;101082.81;;;15.89;100.00
74103;BME280;62853;46.166;3.640;2023-05-09T10:42:51;101078.00;;;15.94;100.00
74103;BME280;62853;46.166;3.640;2023-05-09T10:45:19;101072.19;;;15.89;100.00
74103;BME280;62853;46.166;3.640;2023-05-09T10:47:47;101061.59;;;15.76;100.00
74103;BME280;62853;46.166;3.640;2023-05-09T10:50:14;101062.56;;;15.75;100.00
74103;BME280;62853;46.166;3.640;2023-05-09T10:58:18;101061.22;;;15.57;100.00
74103;BME280;62853;46.166;3.640;2023-05-09T11:00:45;101054.22;;;15.56;100.00
74103;BME280;62853;46.166;3.640;2023-05-09T11:03:11;101061.94;;;15.59;100.00
74103;BME280;62853;46.166;3.640;2023-05-09T11:05:40;101054.41;;;15.53;100.00
74103;BME280;62853;46.166;3.640;2023-05-09T11:10:49;101045.19;;;15.58;100.00
74103;BME280;62853;46.166;3.640;2023-05-09T11:13:18;101045.22;;;15.46;100.00
74103;BME280;62853;46.166;3.640;2023-05-09T11:16:03;101049.31;;;15.50;100.00
74103;BME280;62853;46.166;3.640;2023-05-09T11:18:30;101040.59;;;15.36;100.00
74103;BME280;62853;46.166;3.640;2023-05-09T11:20:57;101041.94;;;15.42;100.00
74103;BME280;62853;46.166;3.640;2023-05-09T11:23:28;101034.28;;;15.50;100.00
74103;BME280;62853;46.166;3.640;2023-05-09T11:26:04;101032.56;;;15.49;100.00
74103;BME280;62853;46.166;3.640;2023-05-09T11:28:34;101032.16;;;15.42;100.00
74103;BME280;62853;46.166;3.640;2023-05-09T11:31:13;101035.78;;;15.41;100.00
74103;BME280;62853;46.166;3.640;2023-05-09T11:33:40;101032.38;;;15.39;100.00
74103;BME280;62853;46.166;3.640;2023-05-09T11:38:45;101023.06;;;15.34;100.00
74103;BME280;62853;46.166;3.640;2023-05-09T11:41:11;101019.22;;;15.38;100.00
74103;BME280;62853;46.166;3.640;2023-05-09T11:43:40;101016.94;;;15.57;100.00
74103;BME280;62853;46.166;3.640;2023-05-09T11:46:06;101015.31;;;15.55;100.00
74103;BME280;62853;46.166;3.640;2023-05-09T11:48:39;101009.06;;;15.56;100.00
74103;BME280;62853;46.166;3.640;2023-05-09T11:51:05;101012.84;;;15.65;100.00
74103;BME280;62853;46.166;3.640;2023-05-09T11:53:31;101007.75;;;15.61;100.00
74103;BME280;62853;46.166;3.640;2023-05-09T11:55:57;101011.66;;;15.44;100.00
74103;BME280;62853;46.166;3.640;2023-05-09T11:58:22;101007.34;;;15.31;100.00
74103;BME280;62853;46.166;3.640;2023-05-09T12:00:48;101007.00;;;15.11;100.00
74103;BME280;62853;46.166;3.640;2023-05-09T12:03:13;101003.94;;;15.04;100.00
74103;BME280;62853;46.166;3.640;2023-05-09T12:05:41;101000.97;;;14.96;100.00
74103;BME280;62853;46.166;3.640;2023-05-09T12:08:07;100999.03;;;14.98;100.00
74103;BME280;62853;46.166;3.640;2023-05-09T12:10:39;100992.50;;;14.91;100.00
74103;BME280;62853;46.166;3.640;2023-05-09T12:13:04;101000.41;;;15.04;100.00
74103;BME280;62853;46.166;3.640;2023-05-09T12:15:35;101001.03;;;15.07;100.00
74103;BME280;62853;46.166;3.640;2023-05-09T12:18:02;100993.00;;;14.96;100.00
74103;BME280;62853;46.166;3.640;2023-05-09T12:20:46;100992.59;;;14.90;100.00
74103;BME280;62853;46.166;3.640;2023-05-09T12:23:20;100988.91;;;14.79;100.00
74103;BME280;62853;46.166;3.640;2023-05-09T12:25:53;100995.44;;;14.99;100.00
74103;BME280;62853;46.166;3.640;2023-05-09T12:28:20;100987.59;;;14.98;100.00
74103;BME280;62853;46.166;3.640;2023-05-09T12:30:46;100989.22;;;14.87;100.00
74103;BME280;62853;46.166;3.640;2023-05-09T12:33:12;100976.91;;;14.86;100.00
74103;BME280;62853;46.166;3.640;2023-05-09T12:35:38;100980.91;;;15.05;100.00
74103;BME280;62853;46.166;3.640;2023-05-09T12:38:06;100973.13;;;15.15;100.00
74103;BME280;62853;46.166;3.640;2023-05-09T12:40:32;100962.22;;;15.06;100.00
74103;BME280;62853;46.166;3.640;2023-05-09T12:42:59;100953.00;;;14.99;100.00
74103;BME280;62853;46.166;3.640;2023-05-09T12:45:27;100957.75;;;15.07;100.00
74103;BME280;62853;46.166;3.640;2023-05-09T12:47:52;100962.56;;;15.26;100.00
74103;BME280;62853;46.166;3.640;2023-05-09T12:50:18;100956.09;;;15.30;100.00
74103;BME280;62853;46.166;3.640;2023-05-09T12:52:49;100954.41;;;15.53;100.00
74103;BME280;62853;46.166;3.640;2023-05-09T12:55:15;100947.84;;;15.46;100.00
74103;BME280;62853;46.166;3.640;2023-05-09T12:57:42;100951.91;;;15.39;100.00
74103;BME280;62853;46.166;3.640;2023-05-09T13:00:20;100954.25;;;15.43;100.00
74103;BME280;62853;46.166;3.640;2023-05-09T13:02:47;100957.63;;;15.46;100.00